sensor_id;sensor_type;location;lat;lon;timestamp;pressure;altitude;pressure_sealevel;temperature;humidity
5283;BME280;15376;48.540;9.268;2022-12-18T00:02:09;98619.53;;;-9.93;100.00
5283;BME280;15376;48.540;9.268;2022-12-18T00:04:34;98624.53;;;-9.85;100.00
5283;BME280;15376;48.540;9.268;2022-12-18T00:07:00;98618.16;;;-10.09;100.00
5283;BME280;15376;48.540;9.268;2022-12-18T00:09:25;98619.16;;;-10.18;100.00
5283;BME280;15376;48.540;9.268;2022-12-18T00:11:50;98601.81;;;-10.50;100.00
5283;BME280;15376;48.540;9.268;2022-12-18T00:14:16;98620.78;;;-10.12;100.00
5283;BME280;15376;48.540;9.268;2022-12-18T00:16:44;98621.47;;;-10.04;100.00
5283;BME280;15376;48.540;9.268;2022-12-18T00:19:10;98627.94;;;-9.85;100.00
5283;BME280;15376;48.540;9.268;2022-12-18T00:21:35;98622.06;;;-10.34;100.00
5283;BME280;15376;48.540;9.268;2022-12-18T00:24:01;98627.09;;;-10.28;100.00
5283;BME280;15376;48.540;9.268;2022-12-18T00:26:29;98618.31;;;-10.18;100.00
5283;BME280;15376;48.540;9.268;2022-12-18T00:28:59;98614.00;;;-10.16;100.00
5283;BME280;15376;48.540;9.268;2022-12-18T00:31:25;98618.16;;;-10.09;100.00
5283;BME280;15376;48.540;9.268;2022-12-18T00:33:51;98625.09;;;-10.14;100.00
5283;BME280;15376;48.540;9.268;2022-12-18T00:36:20;98619.31;;;-10.24;100.00
5283;BME280;15376;48.540;9.268;2022-12-18T00:38:46;98629.31;;;-10.58;100.00
5283;BME280;15376;48.540;9.268;2022-12-18T00:41:13;98612.31;;;-10.65;100.00
5283;BME280;15376;48.540;9.268;2022-12-18T00:43:59;98627.94;;;-10.79;100.00
5283;BME280;15376;48.540;9.268;2022-12-18T00:46:25;98642.78;;;-10.97;100.00
5283;BME280;15376;48.540;9.268;2022-12-18T00:48:50;98629.84;;;-10.91;100.00
5283;BME280;15376;48.540;9.268;2022-12-18T00:51:15;98634.13;;;-10.92;100.00
5283;BME280;15376;48.540;9.268;2022-12-18T00:53:41;98624.72;;;-10.91;100.00
5283;BME280;15376;48.540;9.268;2022-12-18T00:56:06;98635.88;;;-10.94;100.00
5283;BME280;15376;48.540;9.268;2022-12-18T00:58:31;98614.66;;;-11.03;100.00
5283;BME280;15376;48.540;9.268;2022-12-18T01:00:57;98614.56;;;-10.97;100.00
5283;BME280;15376;48.540;9.268;2022-12-18T01:03:22;98613.88;;;-11.10;100.00
5283;BME280;15376;48.540;9.268;2022-12-18T01:05:47;98620.34;;;-11.43;100.00
5283;BME280;15376;48.540;9.268;2022-12-18T01:08:13;98629.81;;;-11.50;100.00
5283;BME280;15376;48.540;9.268;2022-12-18T01:10:41;98626.31;;;-11.42;100.00
5283;BME280;15376;48.540;9.268;2022-12-18T01:13:07;98630.66;;;-11.48;100.00
5283;BME280;15376;48.540;9.268;2022-12-18T01:15:32;98630.72;;;-11.52;100.00
5283;BME280;15376;48.540;9.268;2022-12-18T01:17:57;98627.91;;;-11.34;100.00
5283;BME280;15376;48.540;9.268;2022-12-18T01:20:23;98632.97;;;-11.29;100.00
5283;BME280;15376;48.540;9.268;2022-12-18T01:22:48;98638.44;;;-11.57;100.00
5283;BME280;15376;48.540;9.268;2022-12-18T01:25:13;98634.53;;;-11.81;100.00
5283;BME280;15376;48.540;9.268;2022-12-18T01:27:39;98639.72;;;-11.87;100.00
5283;BME280;15376;48.540;9.268;2022-12-18T01:30:05;98633.97;;;-12.07;100.00
5283;BME280;15376;48.540;9.268;2022-12-18T01:32:31;98643.97;;;-11.87;100.00
5283;BME280;15376;48.540;9.268;2022-12-18T01:34:56;98643.16;;;-11.91;100.00
5283;BME280;15376;48.540;9.268;2022-12-18T01:37:22;98644.19;;;-12.02;100.00
5283;BME280;15376;48.540;9.268;2022-12-18T01:39:47;98633.31;;;-12.27;100.00
5283;BME280;15376;48.540;9.268;2022-12-18T01:42:14;98639.84;;;-11.99;100.00
5283;BME280;15376;48.540;9.268;2022-12-18T01:50:15;98640.41;;;-11.75;100.00
5283;BME280;15376;48.540;9.268;2022-12-18T01:52:50;98639.94;;;-12.05;100.00
5283;BME280;15376;48.540;9.268;2022-12-18T01:55:19;98647.41;;;-11.87;100.00
5283;BME280;15376;48.540;9.268;2022-12-18T01:57:46;98644.94;;;-11.96;100.00
5283;BME280;15376;48.540;9.268;2022-12-18T02:00:18;98644.03;;;-11.92;100.00
5283;BME280;15376;48.540;9.268;2022-12-18T02:02:45;98640.66;;;-11.95;100.00
5283;BME280;15376;48.540;9.268;2022-12-18T02:05:13;98626.00;;;-11.83;100.00
5283;BME280;15376;48.540;9.268;2022-12-18T02:07:42;98630.88;;;-11.64;100.00
5283;BME280;15376;48.540;9.268;2022-12-18T02:13:17;98628.50;;;-11.76;100.00
5283;BME280;15376;48.540;9.268;2022-12-18T02:15:54;98637.00;;;-12.53;100.00
5283;BME280;15376;48.540;9.268;2022-12-18T02:18:27;98635.44;;;-12.72;100.00
5283;BME280;15376;48.540;9.268;2022-12-18T02:20:59;98649.84;;;-12.60;100.00
5283;BME280;15376;48.540;9.268;2022-12-18T02:23:49;98641.28;;;-12.55;100.00
5283;BME280;15376;48.540;9.268;2022-12-18T02:29:08;98632.00;;;-11.84;100.00
5283;BME280;15376;48.540;9.268;2022-12-18T02:31:41;98644.50;;;-12.37;100.00
5283;BME280;15376;48.540;9.268;2022-12-18T02:34:09;98646.16;;;-12.32;100.00
5283;BME280;15376;48.540;9.268;2022-12-18T02:36:38;98634.97;;;-12.20;100.00
5283;BME280;15376;48.540;9.268;2022-12-18T02:39:06;98652.25;;;-12.43;100.00
5283;BME280;15376;48.540;9.268;2022-12-18T02:41:33;98602.09;;;-12.61;100.00
5283;BME280;15376;48.540;9.268;2022-12-18T02:44:01;98634.34;;;-12.40;100.00
5283;BME280;15376;48.540;9.268;2022-12-18T02:46:35;98647.03;;;-12.33;100.00
5283;BME280;15376;48.540;9.268;2022-12-18T02:52:07;98664.25;;;-12.49;100.00
5283;BME280;15376;48.540;9.268;2022-12-18T03:00:16;98670.69;;;-12.08;100.00
5283;BME280;15376;48.540;9.268;2022-12-18T03:02:48;98680.09;;;-12.11;100.00
5283;BME280;15376;48.540;9.268;2022-12-18T03:05:20;98669.91;;;-12.16;100.00
5283;BME280;15376;48.540;9.268;2022-12-18T03:07:54;98669.97;;;-12.24;100.00
5283;BME280;15376;48.540;9.268;2022-12-18T03:10:26;98649.41;;;-12.13;100.00
5283;BME280;15376;48.540;9.268;2022-12-18T03:13:00;98639.97;;;-12.08;100.00
5283;BME280;15376;48.540;9.268;2022-12-18T03:15:35;98646.06;;;-12.21;100.00
5283;BME280;15376;48.540;9.268;2022-12-18T03:18:10;98634.44;;;-12.54;100.00
5283;BME280;15376;48.540;9.268;2022-12-18T03:20:39;98640.50;;;-12.64;100.00
5283;BME280;15376;48.540;9.268;2022-12-18T03:23:11;98652.50;;;-12.72;100.00
5283;BME280;15376;48.540;9.268;2022-12-18T03:25:41;98649.06;;;-12.70;100.00
5283;BME280;15376;48.540;9.268;2022-12-18T03:28:12;98660.34;;;-12.92;100.00
5283;BME280;15376;48.540;9.268;2022-12-18T03:30:39;98662.81;;;-12.80;100.00
5283;BME280;15376;48.540;9.268;2022-12-18T03:33:10;98675.50;;;-12.71;100.00
5283;BME280;15376;48.540;9.268;2022-12-18T03:35:40;98658.59;;;-12.87;100.00
5283;BME280;15376;48.540;9.268;2022-12-18T03:38:07;98661.78;;;-12.62;100.00
5283;BME280;15376;48.540;9.268;2022-12-18T03:40:45;98666.78;;;-12.44;100.00
5283;BME280;15376;48.540;9.268;2022-12-18T03:43:20;98674.41;;;-12.39;100.00
5283;BME280;15376;48.540;9.268;2022-12-18T03:45:53;98677.88;;;-12.47;100.00
5283;BME280;15376;48.540;9.268;2022-12-18T03:48:47;98682.09;;;-12.42;100.00
5283;BME280;15376;48.540;9.268;2022-12-18T03:51:28;98672.84;;;-12.56;100.00
5283;BME280;15376;48.540;9.268;2022-12-18T03:53:59;98658.88;;;-12.21;100.00
5283;BME280;15376;48.540;9.268;2022-12-18T03:56:29;98668.59;;;-12.61;100.00
5283;BME280;15376;48.540;9.268;2022-12-18T03:58:56;98673.78;;;-12.69;100.00
5283;BME280;15376;48.540;9.268;2022-12-18T04:01:29;98679.66;;;-12.58;100.00
5283;BME280;15376;48.540;9.268;2022-12-18T04:03:59;98685.69;;;-12.66;100.00
5283;BME280;15376;48.540;9.268;2022-12-18T04:06:25;98675.28;;;-12.43;100.00
5283;BME280;15376;48.540;9.268;2022-12-18T04:08:52;98665.34;;;-11.90;100.00
5283;BME280;15376;48.540;9.268;2022-12-18T04:11:17;98666.75;;;-11.64;100.00
5283;BME280;15376;48.540;9.268;2022-12-18T04:13:42;98662.31;;;-11.52;100.00
5283;BME280;15376;48.540;9.268;2022-12-18T04:16:08;98674.06;;;-11.35;100.00
5283;BME280;15376;48.540;9.268;2022-12-18T04:18:35;98672.34;;;-11.35;100.00
5283;BME280;15376;48.540;9.268;2022-12-18T04:21:01;98682.84;;;-11.55;100.00
5283;BME280;15376;48.540;9.268;2022-12-18T04:23:27;98680.47;;;-11.68;100.00
5283;BME280;15376;48.540;9.268;2022-12-18T04:25:53;98677.53;;;-12.10;100.00
5283;BME280;15376;48.540;9.268;2022-12-18T04:28:19;98658.75;;;-12.09;100.00
5283;BME280;15376;48.540;9.268;2022-12-18T04:30:47;98666.13;;;-11.83;100.00
5283;BME280;15376;48.540;9.268;2022-12-18T04:33:18;98672.06;;;-11.80;100.00
5283;BME280;15376;48.540;9.268;2022-12-18T04:35:44;98656.97;;;-12.01;100.00
5283;BME280;15376;48.540;9.268;2022-12-18T04:38:09;98665.53;;;-12.05;100.00
5283;BME280;15376;48.540;9.268;2022-12-18T04:40:36;98682.69;;;-12.13;100.00
5283;BME280;15376;48.540;9.268;2022-12-18T04:43:02;98671.75;;;-12.33;100.00
5283;BME280;15376;48.540;9.268;2022-12-18T04:45:27;98692.22;;;-12.32;100.00
5283;BME280;15376;48.540;9.268;2022-12-18T04:47:53;98681.97;;;-12.29;100.00
5283;BME280;15376;48.540;9.268;2022-12-18T04:50:18;98676.19;;;-12.49;100.00
5283;BME280;15376;48.540;9.268;2022-12-18T04:52:44;98671.00;;;-12.41;100.00
5283;BME280;15376;48.540;9.268;2022-12-18T04:55:09;98670.75;;;-12.14;100.00
5283;BME280;15376;48.540;9.268;2022-12-18T04:57:35;98678.47;;;-12.19;100.00
5283;BME280;15376;48.540;9.268;2022-12-18T05:00:00;98662.00;;;-11.95;100.00
5283;BME280;15376;48.540;9.268;2022-12-18T05:02:25;98655.22;;;-11.99;100.00
5283;BME280;15376;48.540;9.268;2022-12-18T05:04:52;98646.63;;;-11.95;100.00
5283;BME280;15376;48.540;9.268;2022-12-18T05:07:17;98648.28;;;-11.89;100.00
5283;BME280;15376;48.540;9.268;2022-12-18T05:09:43;98659.81;;;-12.33;100.00
5283;BME280;15376;48.540;9.268;2022-12-18T05:12:08;98644.88;;;-12.78;100.00
5283;BME280;15376;48.540;9.268;2022-12-18T05:14:33;98647.22;;;-12.53;100.00
5283;BME280;15376;48.540;9.268;2022-12-18T05:16:58;98656.69;;;-12.62;100.00
5283;BME280;15376;48.540;9.268;2022-12-18T05:19:24;98657.66;;;-12.78;100.00
5283;BME280;15376;48.540;9.268;2022-12-18T05:21:49;98647.63;;;-13.04;100.00
5283;BME280;15376;48.540;9.268;2022-12-18T05:24:15;98645.91;;;-12.99;100.00
5283;BME280;15376;48.540;9.268;2022-12-18T05:26:40;98643.28;;;-12.93;100.00
5283;BME280;15376;48.540;9.268;2022-12-18T05:29:05;98642.34;;;-12.80;100.00
5283;BME280;15376;48.540;9.268;2022-12-18T05:31:31;98648.19;;;-12.67;100.00
5283;BME280;15376;48.540;9.268;2022-12-18T05:33:57;98659.28;;;-12.67;100.00
5283;BME280;15376;48.540;9.268;2022-12-18T05:36:23;98663.50;;;-12.63;100.00
5283;BME280;15376;48.540;9.268;2022-12-18T05:38:48;98666.16;;;-12.76;100.00
5283;BME280;15376;48.540;9.268;2022-12-18T05:41:14;98657.06;;;-13.14;100.00
5283;BME280;15376;48.540;9.268;2022-12-18T05:43:40;98649.38;;;-13.09;100.00
5283;BME280;15376;48.540;9.268;2022-12-18T05:46:08;98667.19;;;-12.97;100.00
5283;BME280;15376;48.540;9.268;2022-12-18T05:48:34;98669.72;;;-12.97;100.00
5283;BME280;15376;48.540;9.268;2022-12-18T05:51:08;98668.06;;;-13.04;100.00
5283;BME280;15376;48.540;9.268;2022-12-18T05:53:35;98651.81;;;-12.94;100.00
5283;BME280;15376;48.540;9.268;2022-12-18T05:56:02;98674.84;;;-12.94;100.00
5283;BME280;15376;48.540;9.268;2022-12-18T05:58:28;98672.47;;;-13.20;100.00
5283;BME280;15376;48.540;9.268;2022-12-18T06:00:54;98665.69;;;-13.21;100.00
5283;BME280;15376;48.540;9.268;2022-12-18T06:03:19;98674.91;;;-13.09;100.00
5283;BME280;15376;48.540;9.268;2022-12-18T06:05:45;98672.53;;;-13.32;100.00
5283;BME280;15376;48.540;9.268;2022-12-18T06:08:12;98668.25;;;-13.26;100.00
5283;BME280;15376;48.540;9.268;2022-12-18T06:10:38;98662.94;;;-13.03;100.00
5283;BME280;15376;48.540;9.268;2022-12-18T06:13:04;98670.09;;;-13.58;100.00
5283;BME280;15376;48.540;9.268;2022-12-18T06:15:30;98661.72;;;-13.94;100.00
5283;BME280;15376;48.540;9.268;2022-12-18T06:17:55;98658.41;;;-14.11;100.00
5283;BME280;15376;48.540;9.268;2022-12-18T06:20:21;98655.84;;;-14.17;100.00
5283;BME280;15376;48.540;9.268;2022-12-18T06:22:46;98668.59;;;-14.11;100.00
5283;BME280;15376;48.540;9.268;2022-12-18T06:25:12;98667.72;;;-14.02;100.00
5283;BME280;15376;48.540;9.268;2022-12-18T06:27:37;98662.56;;;-13.86;100.00
5283;BME280;15376;48.540;9.268;2022-12-18T06:30:03;98665.13;;;-13.96;100.00
5283;BME280;15376;48.540;9.268;2022-12-18T06:32:29;98666.03;;;-14.02;100.00
5283;BME280;15376;48.540;9.268;2022-12-18T06:34:54;98681.28;;;-13.87;100.00
5283;BME280;15376;48.540;9.268;2022-12-18T06:37:21;98687.22;;;-13.82;100.00
5283;BME280;15376;48.540;9.268;2022-12-18T06:39:46;98688.09;;;-13.92;100.00
5283;BME280;15376;48.540;9.268;2022-12-18T06:42:11;98699.16;;;-13.87;100.00
5283;BME280;15376;48.540;9.268;2022-12-18T06:44:37;98711.03;;;-13.79;100.00
5283;BME280;15376;48.540;9.268;2022-12-18T06:47:02;98708.38;;;-13.49;100.00
5283;BME280;15376;48.540;9.268;2022-12-18T06:49:27;98705.94;;;-13.83;100.00
5283;BME280;15376;48.540;9.268;2022-12-18T06:51:53;98713.63;;;-13.96;100.00
5283;BME280;15376;48.540;9.268;2022-12-18T06:54:18;98735.75;;;-13.95;100.00
5283;BME280;15376;48.540;9.268;2022-12-18T06:56:47;98725.56;;;-14.06;100.00
5283;BME280;15376;48.540;9.268;2022-12-18T06:59:13;98725.59;;;-14.15;100.00
5283;BME280;15376;48.540;9.268;2022-12-18T07:01:39;98721.31;;;-14.01;100.00
5283;BME280;15376;48.540;9.268;2022-12-18T07:04:04;98713.63;;;-13.98;100.00
5283;BME280;15376;48.540;9.268;2022-12-18T07:06:30;98721.31;;;-14.08;100.00
5283;BME280;15376;48.540;9.268;2022-12-18T07:08:55;98721.28;;;-13.93;100.00
5283;BME280;15376;48.540;9.268;2022-12-18T07:11:21;98713.59;;;-13.79;100.00
5283;BME280;15376;48.540;9.268;2022-12-18T07:13:47;98732.34;;;-13.96;100.00
5283;BME280;15376;48.540;9.268;2022-12-18T07:16:20;98720.44;;;-13.94;100.00
5283;BME280;15376;48.540;9.268;2022-12-18T07:18:46;98737.41;;;-13.74;100.00
5283;BME280;15376;48.540;9.268;2022-12-18T07:21:16;98739.03;;;-13.54;100.00
5283;BME280;15376;48.540;9.268;2022-12-18T07:23:42;98742.53;;;-13.79;100.00
5283;BME280;15376;48.540;9.268;2022-12-18T07:26:10;98745.09;;;-13.87;100.00
5283;BME280;15376;48.540;9.268;2022-12-18T07:28:37;98745.13;;;-14.02;100.00
5283;BME280;15376;48.540;9.268;2022-12-18T07:31:06;98755.34;;;-14.08;100.00
5283;BME280;15376;48.540;9.268;2022-12-18T07:33:34;98757.00;;;-13.83;100.00
5283;BME280;15376;48.540;9.268;2022-12-18T07:36:00;98742.53;;;-13.84;100.00
5283;BME280;15376;48.540;9.268;2022-12-18T07:38:25;98751.03;;;-13.77;100.00
5283;BME280;15376;48.540;9.268;2022-12-18T07:40:51;98755.31;;;-13.91;100.00
5283;BME280;15376;48.540;9.268;2022-12-18T07:43:16;98760.44;;;-14.02;100.00
5283;BME280;15376;48.540;9.268;2022-12-18T07:45:42;98734.94;;;-14.14;100.00
5283;BME280;15376;48.540;9.268;2022-12-18T07:48:08;98746.84;;;-14.01;100.00
5283;BME280;15376;48.540;9.268;2022-12-18T07:50:33;98742.59;;;-14.08;100.00
5283;BME280;15376;48.540;9.268;2022-12-18T07:52:59;98737.44;;;-13.97;100.00
5283;BME280;15376;48.540;9.268;2022-12-18T07:55:29;98743.38;;;-13.72;100.00
5283;BME280;15376;48.540;9.268;2022-12-18T07:57:54;98731.44;;;-13.61;100.00
5283;BME280;15376;48.540;9.268;2022-12-18T08:00:19;98748.44;;;-13.62;100.00
5283;BME280;15376;48.540;9.268;2022-12-18T08:02:45;98744.94;;;-13.35;100.00
5283;BME280;15376;48.540;9.268;2022-12-18T08:05:10;98745.69;;;-13.16;100.00
5283;BME280;15376;48.540;9.268;2022-12-18T08:07:35;98755.09;;;-13.23;100.00
5283;BME280;15376;48.540;9.268;2022-12-18T08:10:01;98745.63;;;-13.10;100.00
5283;BME280;15376;48.540;9.268;2022-12-18T08:12:26;98751.56;;;-13.06;100.00
5283;BME280;15376;48.540;9.268;2022-12-18T08:14:51;98758.47;;;-13.18;100.00
5283;BME280;15376;48.540;9.268;2022-12-18T08:17:17;98744.06;;;-13.31;100.00
5283;BME280;15376;48.540;9.268;2022-12-18T08:19:44;98763.72;;;-13.54;100.00
5283;BME280;15376;48.540;9.268;2022-12-18T08:22:09;98766.25;;;-13.46;100.00
5283;BME280;15376;48.540;9.268;2022-12-18T08:24:34;98759.41;;;-13.37;100.00
5283;BME280;15376;48.540;9.268;2022-12-18T08:27:00;98751.59;;;-13.09;100.00
5283;BME280;15376;48.540;9.268;2022-12-18T08:29:25;98753.94;;;-12.76;100.00
5283;BME280;15376;48.540;9.268;2022-12-18T08:31:50;98749.75;;;-12.83;100.00
5283;BME280;15376;48.540;9.268;2022-12-18T08:34:16;98761.63;;;-12.77;100.00
5283;BME280;15376;48.540;9.268;2022-12-18T08:36:41;98754.78;;;-12.74;100.00
5283;BME280;15376;48.540;9.268;2022-12-18T08:39:07;98751.19;;;-12.42;100.00
5283;BME280;15376;48.540;9.268;2022-12-18T08:41:32;98728.94;;;-12.37;100.00
5283;BME280;15376;48.540;9.268;2022-12-18T08:43:57;98754.31;;;-12.10;100.00
5283;BME280;15376;48.540;9.268;2022-12-18T08:46:42;98744.66;;;-11.82;100.00
5283;BME280;15376;48.540;9.268;2022-12-18T08:49:09;98755.00;;;-11.91;100.00
5283;BME280;15376;48.540;9.268;2022-12-18T08:51:35;98745.41;;;-11.72;100.00
5283;BME280;15376;48.540;9.268;2022-12-18T08:54:02;98750.53;;;-11.72;100.00
5283;BME280;15376;48.540;9.268;2022-12-18T08:56:27;98745.28;;;-11.60;100.00
5283;BME280;15376;48.540;9.268;2022-12-18T08:58:54;98743.50;;;-11.57;100.00
5283;BME280;15376;48.540;9.268;2022-12-18T09:01:20;98739.81;;;-11.31;100.00
5283;BME280;15376;48.540;9.268;2022-12-18T09:03:50;98732.69;;;-11.11;100.00
5283;BME280;15376;48.540;9.268;2022-12-18T09:06:17;98731.53;;;-10.87;100.00
5283;BME280;15376;48.540;9.268;2022-12-18T09:08:46;98736.28;;;-10.61;100.00
5283;BME280;15376;48.540;9.268;2022-12-18T09:11:14;98724.31;;;-10.61;100.00
5283;BME280;15376;48.540;9.268;2022-12-18T09:13:40;98714.09;;;-10.65;100.00
5283;BME280;15376;48.540;9.268;2022-12-18T09:16:05;98706.94;;;-10.43;100.00
5283;BME280;15376;48.540;9.268;2022-12-18T09:18:31;98726.25;;;-10.21;100.00
5283;BME280;15376;48.540;9.268;2022-12-18T09:20:56;98719.03;;;-10.01;100.00
5283;BME280;15376;48.540;9.268;2022-12-18T09:23:21;98725.25;;;-9.66;100.00
5283;BME280;15376;48.540;9.268;2022-12-18T09:25:47;98716.38;;;-9.09;100.00
5283;BME280;15376;48.540;9.268;2022-12-18T09:28:17;98711.56;;;-7.79;100.00
5283;BME280;15376;48.540;9.268;2022-12-18T09:30:45;98705.50;;;-5.79;100.00
5283;BME280;15376;48.540;9.268;2022-12-18T09:33:11;98704.06;;;-4.91;100.00
5283;BME280;15376;48.540;9.268;2022-12-18T09:35:41;98681.69;;;-3.07;100.00
5283;BME280;15376;48.540;9.268;2022-12-18T09:38:08;98698.38;;;-1.66;100.00
5283;BME280;15376;48.540;9.268;2022-12-18T09:40:44;98696.16;;;-0.91;100.00
5283;BME280;15376;48.540;9.268;2022-12-18T09:43:20;98690.75;;;-2.59;85.60
5283;BME280;15376;48.540;9.268;2022-12-18T09:45:54;98693.97;;;-2.54;90.24
5283;BME280;15376;48.540;9.268;2022-12-18T09:48:25;98695.28;;;-4.00;83.65
5283;BME280;15376;48.540;9.268;2022-12-18T09:50:57;98716.91;;;-4.88;86.85
5283;BME280;15376;48.540;9.268;2022-12-18T09:53:26;98698.88;;;-5.15;86.44
5283;BME280;15376;48.540;9.268;2022-12-18T09:55:54;98700.00;;;-3.89;87.63
5283;BME280;15376;48.540;9.268;2022-12-18T09:58:41;98695.91;;;-5.04;85.82
5283;BME280;15376;48.540;9.268;2022-12-18T10:01:18;98692.53;;;-5.29;86.02
5283;BME280;15376;48.540;9.268;2022-12-18T10:03:45;98689.56;;;-5.67;88.58
5283;BME280;15376;48.540;9.268;2022-12-18T10:06:14;98686.41;;;-6.26;89.91
5283;BME280;15376;48.540;9.268;2022-12-18T10:08:51;98702.22;;;-6.63;93.03
5283;BME280;15376;48.540;9.268;2022-12-18T10:11:32;98697.28;;;-6.71;94.51
5283;BME280;15376;48.540;9.268;2022-12-18T10:15:02;98693.84;;;-6.99;96.55
5283;BME280;15376;48.540;9.268;2022-12-18T10:17:14;98682.81;;;-7.04;98.91
5283;BME280;15376;48.540;9.268;2022-12-18T10:19:48;98683.53;;;-7.29;100.00
5283;BME280;15376;48.540;9.268;2022-12-18T10:25:03;98696.56;;;-7.33;100.00
5283;BME280;15376;48.540;9.268;2022-12-18T10:27:31;98688.97;;;-7.38;100.00
5283;BME280;15376;48.540;9.268;2022-12-18T10:29:57;98706.00;;;-7.03;100.00
5283;BME280;15376;48.540;9.268;2022-12-18T10:32:31;98703.94;;;-7.20;100.00
5283;BME280;15376;48.540;9.268;2022-12-18T10:34:57;98687.19;;;-7.36;100.00
5283;BME280;15376;48.540;9.268;2022-12-18T10:37:27;98690.47;;;-7.31;100.00
5283;BME280;15376;48.540;9.268;2022-12-18T10:40:14;98688.34;;;-7.17;100.00
5283;BME280;15376;48.540;9.268;2022-12-18T10:42:41;98683.94;;;-7.13;100.00
5283;BME280;15376;48.540;9.268;2022-12-18T10:45:14;98676.31;;;-7.18;100.00
5283;BME280;15376;48.540;9.268;2022-12-18T10:47:48;98688.38;;;-6.89;100.00
5283;BME280;15376;48.540;9.268;2022-12-18T10:50:26;98687.44;;;-6.86;100.00
5283;BME280;15376;48.540;9.268;2022-12-18T10:52:59;98690.44;;;-6.72;100.00
5283;BME280;15376;48.540;9.268;2022-12-18T10:55:39;98683.31;;;-6.64;100.00
5283;BME280;15376;48.540;9.268;2022-12-18T10:58:27;98694.97;;;-6.51;100.00
5283;BME280;15376;48.540;9.268;2022-12-18T11:01:09;98685.56;;;-6.53;100.00
5283;BME280;15376;48.540;9.268;2022-12-18T11:03:45;98692.97;;;-6.43;100.00
5283;BME280;15376;48.540;9.268;2022-12-18T11:06:16;98684.13;;;-6.35;100.00
5283;BME280;15376;48.540;9.268;2022-12-18T11:08:43;98672.50;;;-6.49;100.00
5283;BME280;15376;48.540;9.268;2022-12-18T11:11:23;98677.66;;;-6.49;100.00
5283;BME280;15376;48.540;9.268;2022-12-18T11:14:28;98676.22;;;-6.31;100.00
5283;BME280;15376;48.540;9.268;2022-12-18T11:16:54;98668.41;;;-6.29;100.00
5283;BME280;15376;48.540;9.268;2022-12-18T11:21:58;98650.94;;;-6.21;100.00
5283;BME280;15376;48.540;9.268;2022-12-18T11:24:32;98657.28;;;-6.05;100.00
5283;BME280;15376;48.540;9.268;2022-12-18T11:27:01;98651.03;;;-5.99;100.00
5283;BME280;15376;48.540;9.268;2022-12-18T11:29:36;98645.66;;;-5.93;100.00
5283;BME280;15376;48.540;9.268;2022-12-18T11:34:46;98634.47;;;-5.94;100.00
5283;BME280;15376;48.540;9.268;2022-12-18T11:37:15;98632.78;;;-5.95;100.00
5283;BME280;15376;48.540;9.268;2022-12-18T11:39:57;98626.31;;;-5.83;100.00
5283;BME280;15376;48.540;9.268;2022-12-18T11:42:45;98630.53;;;-5.81;100.00
5283;BME280;15376;48.540;9.268;2022-12-18T11:50:23;98612.22;;;-5.75;100.00
5283;BME280;15376;48.540;9.268;2022-12-18T11:52:49;98606.59;;;-5.62;100.00
5283;BME280;15376;48.540;9.268;2022-12-18T11:55:31;98620.16;;;-5.56;100.00
5283;BME280;15376;48.540;9.268;2022-12-18T11:58:18;98625.03;;;-5.48;100.00
5283;BME280;15376;48.540;9.268;2022-12-18T12:17:15;98607.84;;;-5.26;100.00
5283;BME280;15376;48.540;9.268;2022-12-18T12:25:25;98598.59;;;-4.88;100.00
5283;BME280;15376;48.540;9.268;2022-12-18T12:28:06;98598.34;;;-4.82;100.00
5283;BME280;15376;48.540;9.268;2022-12-18T12:30:49;98592.19;;;-4.79;100.00
5283;BME280;15376;48.540;9.268;2022-12-18T12:33:50;98584.53;;;-4.60;100.00
5283;BME280;15376;48.540;9.268;2022-12-18T12:39:01;98575.78;;;-4.58;100.00
5283;BME280;15376;48.540;9.268;2022-12-18T12:41:32;98592.84;;;-4.52;100.00
5283;BME280;15376;48.540;9.268;2022-12-18T12:44:26;98584.09;;;-4.50;100.00
5283;BME280;15376;48.540;9.268;2022-12-18T12:46:57;98580.84;;;-4.55;100.00
5283;BME280;15376;48.540;9.268;2022-12-18T12:49:27;98595.38;;;-4.30;100.00
5283;BME280;15376;48.540;9.268;2022-12-18T12:52:00;98594.28;;;-4.25;100.00
5283;BME280;15376;48.540;9.268;2022-12-18T12:54:31;98589.88;;;-4.23;100.00
5283;BME280;15376;48.540;9.268;2022-12-18T12:56:59;98597.06;;;-4.29;100.00
5283;BME280;15376;48.540;9.268;2022-12-18T13:04:54;98610.41;;;-4.39;100.00
5283;BME280;15376;48.540;9.268;2022-12-18T13:07:41;98616.38;;;-4.37;100.00
5283;BME280;15376;48.540;9.268;2022-12-18T13:13:18;98618.19;;;-3.98;100.00
5283;BME280;15376;48.540;9.268;2022-12-18T13:15:43;98617.56;;;-3.83;100.00
5283;BME280;15376;48.540;9.268;2022-12-18T13:23:26;98625.72;;;-3.72;100.00
5283;BME280;15376;48.540;9.268;2022-12-18T13:26:28;98630.91;;;-3.72;100.00
5283;BME280;15376;48.540;9.268;2022-12-18T13:34:28;98617.47;;;-3.61;100.00
5283;BME280;15376;48.540;9.268;2022-12-18T13:36:57;98617.88;;;-3.51;100.00
5283;BME280;15376;48.540;9.268;2022-12-18T13:39:41;98614.66;;;-3.56;100.00
5283;BME280;15376;48.540;9.268;2022-12-18T13:44:33;98621.06;;;-3.63;100.00
5283;BME280;15376;48.540;9.268;2022-12-18T13:47:01;98613.25;;;-3.63;100.00
5283;BME280;15376;48.540;9.268;2022-12-18T13:49:40;98611.22;;;-3.57;100.00
5283;BME280;15376;48.540;9.268;2022-12-18T13:52:27;98612.06;;;-3.56;100.00
5283;BME280;15376;48.540;9.268;2022-12-18T13:54:55;98593.41;;;-3.64;100.00
5283;BME280;15376;48.540;9.268;2022-12-18T13:57:29;98601.47;;;-3.52;100.00
5283;BME280;15376;48.540;9.268;2022-12-18T13:59:55;98602.16;;;-3.67;100.00
5283;BME280;15376;48.540;9.268;2022-12-18T14:02:26;98602.88;;;-3.63;100.00
5283;BME280;15376;48.540;9.268;2022-12-18T14:04:53;98609.31;;;-3.72;100.00
5283;BME280;15376;48.540;9.268;2022-12-18T14:07:24;98600.16;;;-3.81;100.00
5283;BME280;15376;48.540;9.268;2022-12-18T14:09:55;98612.50;;;-3.86;100.00
5283;BME280;15376;48.540;9.268;2022-12-18T14:12:27;98602.13;;;-3.86;100.00
5283;BME280;15376;48.540;9.268;2022-12-18T14:17:52;98609.50;;;-3.97;100.00
5283;BME280;15376;48.540;9.268;2022-12-18T14:20:19;98611.97;;;-3.94;100.00
5283;BME280;15376;48.540;9.268;2022-12-18T14:22:46;98621.00;;;-4.03;100.00
5283;BME280;15376;48.540;9.268;2022-12-18T14:30:29;98614.78;;;-4.19;100.00
5283;BME280;15376;48.540;9.268;2022-12-18T14:33:15;98606.41;;;-4.25;100.00